sensor_id;sensor_type;location;lat;lon;timestamp;P1;durP1;ratioP1;P2;durP2;ratioP2
15697;SDS011;7949;48.726;9.102;2023-02-10T00:01:16;54.67;;;19.83;;
15697;SDS011;7949;48.726;9.102;2023-02-10T00:03:44;51.10;;;21.70;;
15697;SDS011;7949;48.726;9.102;2023-02-10T00:06:12;46.63;;;19.93;;
15697;SDS011;7949;48.726;9.102;2023-02-10T00:08:41;54.43;;;20.77;;
15697;SDS011;7949;48.726;9.102;2023-02-10T00:11:12;46.23;;;18.03;;
15697;SDS011;7949;48.726;9.102;2023-02-10T00:13:40;51.80;;;22.37;;
15697;SDS011;7949;48.726;9.102;2023-02-10T00:16:09;48.90;;;19.30;;
15697;SDS011;7949;48.726;9.102;2023-02-10T00:18:37;48.07;;;21.10;;
15697;SDS011;7949;48.726;9.102;2023-02-10T00:21:05;55.77;;;22.93;;
15697;SDS011;7949;48.726;9.102;2023-02-10T00:23:33;48.30;;;20.17;;
15697;SDS011;7949;48.726;9.102;2023-02-10T00:26:03;51.23;;;21.13;;
15697;SDS011;7949;48.726;9.102;2023-02-10T00:28:31;48.20;;;19.93;;
15697;SDS011;7949;48.726;9.102;2023-02-10T00:30:59;45.67;;;20.07;;
15697;SDS011;7949;48.726;9.102;2023-02-10T00:33:31;47.90;;;19.70;;
15697;SDS011;7949;48.726;9.102;2023-02-10T00:35:57;57.90;;;19.10;;
15697;SDS011;7949;48.726;9.102;2023-02-10T00:38:24;45.43;;;18.80;;
15697;SDS011;7949;48.726;9.102;2023-02-10T00:40:51;47.00;;;18.77;;
15697;SDS011;7949;48.726;9.102;2023-02-10T00:43:20;40.60;;;17.87;;
15697;SDS011;7949;48.726;9.102;2023-02-10T00:45:48;42.23;;;18.20;;
15697;SDS011;7949;48.726;9.102;2023-02-10T00:48:14;40.93;;;17.87;;
15697;SDS011;7949;48.726;9.102;2023-02-10T00:50:41;48.27;;;18.53;;
15697;SDS011;7949;48.726;9.102;2023-02-10T00:53:08;47.70;;;19.10;;
15697;SDS011;7949;48.726;9.102;2023-02-10T00:55:35;45.77;;;20.27;;
15697;SDS011;7949;48.726;9.102;2023-02-10T00:58:02;44.70;;;17.63;;
15697;SDS011;7949;48.726;9.102;2023-02-10T01:00:30;39.10;;;18.40;;
15697;SDS011;7949;48.726;9.102;2023-02-10T01:02:57;48.23;;;18.20;;
15697;SDS011;7949;48.726;9.102;2023-02-10T01:05:24;44.40;;;18.00;;
15697;SDS011;7949;48.726;9.102;2023-02-10T01:07:51;45.17;;;18.90;;
15697;SDS011;7949;48.726;9.102;2023-02-10T01:10:18;45.80;;;18.37;;
15697;SDS011;7949;48.726;9.102;2023-02-10T01:15:24;44.10;;;18.40;;
15697;SDS011;7949;48.726;9.102;2023-02-10T01:17:52;50.10;;;20.37;;
15697;SDS011;7949;48.726;9.102;2023-02-10T01:20:19;48.93;;;19.60;;
15697;SDS011;7949;48.726;9.102;2023-02-10T01:22:46;43.63;;;19.07;;
15697;SDS011;7949;48.726;9.102;2023-02-10T01:25:14;46.27;;;19.80;;
15697;SDS011;7949;48.726;9.102;2023-02-10T01:27:41;52.70;;;19.73;;
15697;SDS011;7949;48.726;9.102;2023-02-10T01:30:08;50.57;;;20.87;;
15697;SDS011;7949;48.726;9.102;2023-02-10T01:32:35;47.20;;;18.63;;
15697;SDS011;7949;48.726;9.102;2023-02-10T01:35:04;42.60;;;19.57;;
15697;SDS011;7949;48.726;9.102;2023-02-10T01:37:33;51.00;;;19.93;;
15697;SDS011;7949;48.726;9.102;2023-02-10T01:46:46;50.20;;;19.83;;
15697;SDS011;7949;48.726;9.102;2023-02-10T01:52:37;48.47;;;20.30;;
15697;SDS011;7949;48.726;9.102;2023-02-10T01:55:05;45.90;;;18.67;;
15697;SDS011;7949;48.726;9.102;2023-02-10T01:57:35;56.50;;;21.10;;
15697;SDS011;7949;48.726;9.102;2023-02-10T02:00:05;44.37;;;20.17;;
15697;SDS011;7949;48.726;9.102;2023-02-10T02:02:34;53.17;;;20.07;;
15697;SDS011;7949;48.726;9.102;2023-02-10T02:05:02;50.07;;;20.63;;
15697;SDS011;7949;48.726;9.102;2023-02-10T02:07:32;46.90;;;19.87;;
15697;SDS011;7949;48.726;9.102;2023-02-10T02:10:04;58.40;;;19.17;;
15697;SDS011;7949;48.726;9.102;2023-02-10T02:12:34;60.77;;;21.80;;
15697;SDS011;7949;48.726;9.102;2023-02-10T02:15:08;43.23;;;19.43;;
15697;SDS011;7949;48.726;9.102;2023-02-10T02:17:42;51.37;;;20.60;;
15697;SDS011;7949;48.726;9.102;2023-02-10T02:20:32;49.07;;;17.90;;
15697;SDS011;7949;48.726;9.102;2023-02-10T02:23:16;59.50;;;19.70;;
15697;SDS011;7949;48.726;9.102;2023-02-10T02:26:13;61.30;;;20.83;;
15697;SDS011;7949;48.726;9.102;2023-02-10T02:32:16;56.20;;;22.40;;
15697;SDS011;7949;48.726;9.102;2023-02-10T02:34:46;56.83;;;21.23;;
15697;SDS011;7949;48.726;9.102;2023-02-10T02:37:18;58.67;;;23.10;;
15697;SDS011;7949;48.726;9.102;2023-02-10T02:39:48;48.27;;;21.93;;
15697;SDS011;7949;48.726;9.102;2023-02-10T02:42:18;53.43;;;22.23;;
15697;SDS011;7949;48.726;9.102;2023-02-10T02:44:47;47.40;;;20.60;;
15697;SDS011;7949;48.726;9.102;2023-02-10T02:47:21;53.90;;;21.70;;
15697;SDS011;7949;48.726;9.102;2023-02-10T02:50:11;47.57;;;20.80;;
15697;SDS011;7949;48.726;9.102;2023-02-10T02:52:48;49.73;;;22.27;;
15697;SDS011;7949;48.726;9.102;2023-02-10T02:55:34;58.07;;;22.27;;
15697;SDS011;7949;48.726;9.102;2023-02-10T02:58:11;51.50;;;21.93;;
15697;SDS011;7949;48.726;9.102;2023-02-10T03:00:44;49.37;;;19.63;;
15697;SDS011;7949;48.726;9.102;2023-02-10T03:03:13;42.73;;;20.37;;
15697;SDS011;7949;48.726;9.102;2023-02-10T03:05:41;57.30;;;22.43;;
15697;SDS011;7949;48.726;9.102;2023-02-10T03:08:08;46.20;;;20.37;;
15697;SDS011;7949;48.726;9.102;2023-02-10T03:10:35;58.77;;;22.00;;
15697;SDS011;7949;48.726;9.102;2023-02-10T03:13:02;50.30;;;20.13;;
15697;SDS011;7949;48.726;9.102;2023-02-10T03:15:28;49.63;;;21.37;;
15697;SDS011;7949;48.726;9.102;2023-02-10T03:17:56;53.70;;;22.17;;
15697;SDS011;7949;48.726;9.102;2023-02-10T03:20:24;51.90;;;22.70;;
15697;SDS011;7949;48.726;9.102;2023-02-10T03:22:51;54.23;;;22.47;;
15697;SDS011;7949;48.726;9.102;2023-02-10T03:25:18;50.47;;;19.93;;
15697;SDS011;7949;48.726;9.102;2023-02-10T03:27:45;46.27;;;19.37;;
15697;SDS011;7949;48.726;9.102;2023-02-10T03:30:12;46.43;;;19.00;;
15697;SDS011;7949;48.726;9.102;2023-02-10T03:32:39;55.83;;;23.73;;
15697;SDS011;7949;48.726;9.102;2023-02-10T03:35:06;48.03;;;22.67;;
15697;SDS011;7949;48.726;9.102;2023-02-10T03:37:35;55.20;;;22.53;;
15697;SDS011;7949;48.726;9.102;2023-02-10T03:40:01;54.30;;;21.50;;
15697;SDS011;7949;48.726;9.102;2023-02-10T03:42:29;51.67;;;21.60;;
15697;SDS011;7949;48.726;9.102;2023-02-10T03:44:55;47.90;;;21.13;;
15697;SDS011;7949;48.726;9.102;2023-02-10T03:47:22;51.03;;;21.83;;
15697;SDS011;7949;48.726;9.102;2023-02-10T03:49:49;49.40;;;21.50;;
15697;SDS011;7949;48.726;9.102;2023-02-10T03:52:16;45.60;;;20.20;;
15697;SDS011;7949;48.726;9.102;2023-02-10T03:54:44;43.87;;;20.63;;
15697;SDS011;7949;48.726;9.102;2023-02-10T03:57:11;51.03;;;21.50;;
15697;SDS011;7949;48.726;9.102;2023-02-10T03:59:38;40.60;;;18.93;;
15697;SDS011;7949;48.726;9.102;2023-02-10T04:02:05;46.37;;;20.00;;
15697;SDS011;7949;48.726;9.102;2023-02-10T04:04:32;43.20;;;19.67;;
15697;SDS011;7949;48.726;9.102;2023-02-10T04:07:00;48.47;;;19.90;;
15697;SDS011;7949;48.726;9.102;2023-02-10T04:09:27;44.43;;;19.87;;
15697;SDS011;7949;48.726;9.102;2023-02-10T04:11:56;45.97;;;20.47;;
15697;SDS011;7949;48.726;9.102;2023-02-10T04:14:23;48.40;;;20.60;;
15697;SDS011;7949;48.726;9.102;2023-02-10T04:16:50;42.57;;;19.10;;
15697;SDS011;7949;48.726;9.102;2023-02-10T04:19:16;42.97;;;19.47;;
15697;SDS011;7949;48.726;9.102;2023-02-10T04:21:43;49.17;;;19.27;;
15697;SDS011;7949;48.726;9.102;2023-02-10T04:24:10;54.03;;;21.53;;
15697;SDS011;7949;48.726;9.102;2023-02-10T04:26:37;41.43;;;19.33;;
15697;SDS011;7949;48.726;9.102;2023-02-10T04:29:05;44.37;;;19.37;;
15697;SDS011;7949;48.726;9.102;2023-02-10T04:31:32;45.43;;;18.53;;
15697;SDS011;7949;48.726;9.102;2023-02-10T04:33:59;40.50;;;18.97;;
15697;SDS011;7949;48.726;9.102;2023-02-10T04:36:26;42.57;;;18.97;;
15697;SDS011;7949;48.726;9.102;2023-02-10T04:38:53;44.03;;;18.60;;
15697;SDS011;7949;48.726;9.102;2023-02-10T04:41:20;41.10;;;18.07;;
15697;SDS011;7949;48.726;9.102;2023-02-10T04:43:47;41.57;;;17.73;;
15697;SDS011;7949;48.726;9.102;2023-02-10T04:46:15;41.33;;;18.53;;
15697;SDS011;7949;48.726;9.102;2023-02-10T04:48:42;43.00;;;18.70;;
15697;SDS011;7949;48.726;9.102;2023-02-10T04:51:09;40.60;;;18.50;;
15697;SDS011;7949;48.726;9.102;2023-02-10T04:53:37;41.93;;;18.67;;
15697;SDS011;7949;48.726;9.102;2023-02-10T04:56:05;38.97;;;17.67;;
15697;SDS011;7949;48.726;9.102;2023-02-10T04:58:32;40.30;;;17.40;;
15697;SDS011;7949;48.726;9.102;2023-02-10T05:00:59;43.67;;;18.07;;
15697;SDS011;7949;48.726;9.102;2023-02-10T05:03:28;47.77;;;18.43;;
15697;SDS011;7949;48.726;9.102;2023-02-10T05:05:55;45.40;;;18.57;;
15697;SDS011;7949;48.726;9.102;2023-02-10T05:08:21;40.00;;;16.87;;
15697;SDS011;7949;48.726;9.102;2023-02-10T05:10:49;39.97;;;18.37;;
15697;SDS011;7949;48.726;9.102;2023-02-10T05:13:16;40.83;;;17.87;;
15697;SDS011;7949;48.726;9.102;2023-02-10T05:15:43;34.33;;;16.70;;
15697;SDS011;7949;48.726;9.102;2023-02-10T05:18:10;39.17;;;18.23;;
15697;SDS011;7949;48.726;9.102;2023-02-10T05:20:38;36.87;;;17.80;;
15697;SDS011;7949;48.726;9.102;2023-02-10T05:23:05;45.37;;;17.20;;
15697;SDS011;7949;48.726;9.102;2023-02-10T05:25:32;43.17;;;17.53;;
15697;SDS011;7949;48.726;9.102;2023-02-10T05:27:59;43.00;;;18.27;;
15697;SDS011;7949;48.726;9.102;2023-02-10T05:30:26;32.67;;;16.93;;
15697;SDS011;7949;48.726;9.102;2023-02-10T05:32:53;39.57;;;17.80;;
15697;SDS011;7949;48.726;9.102;2023-02-10T05:35:19;46.00;;;18.70;;
15697;SDS011;7949;48.726;9.102;2023-02-10T05:37:48;42.30;;;18.30;;
15697;SDS011;7949;48.726;9.102;2023-02-10T05:40:15;35.67;;;16.50;;
15697;SDS011;7949;48.726;9.102;2023-02-10T05:42:42;40.00;;;17.30;;
15697;SDS011;7949;48.726;9.102;2023-02-10T05:45:08;36.57;;;16.47;;
15697;SDS011;7949;48.726;9.102;2023-02-10T05:47:35;40.07;;;17.93;;
15697;SDS011;7949;48.726;9.102;2023-02-10T05:50:02;36.03;;;16.40;;
15697;SDS011;7949;48.726;9.102;2023-02-10T05:52:30;38.00;;;17.83;;
15697;SDS011;7949;48.726;9.102;2023-02-10T05:54:58;39.53;;;17.40;;
15697;SDS011;7949;48.726;9.102;2023-02-10T05:57:25;40.03;;;17.97;;
15697;SDS011;7949;48.726;9.102;2023-02-10T05:59:51;33.53;;;16.23;;
15697;SDS011;7949;48.726;9.102;2023-02-10T06:02:18;35.67;;;16.37;;
15697;SDS011;7949;48.726;9.102;2023-02-10T06:04:46;39.33;;;17.30;;
15697;SDS011;7949;48.726;9.102;2023-02-10T06:07:13;36.67;;;16.33;;
15697;SDS011;7949;48.726;9.102;2023-02-10T06:09:41;40.67;;;17.00;;
15697;SDS011;7949;48.726;9.102;2023-02-10T06:12:09;39.23;;;16.63;;
15697;SDS011;7949;48.726;9.102;2023-02-10T06:14:36;42.10;;;16.47;;
15697;SDS011;7949;48.726;9.102;2023-02-10T06:17:03;39.57;;;17.13;;
15697;SDS011;7949;48.726;9.102;2023-02-10T06:19:33;33.17;;;16.13;;
15697;SDS011;7949;48.726;9.102;2023-02-10T06:22:00;39.03;;;15.47;;
15697;SDS011;7949;48.726;9.102;2023-02-10T06:24:28;33.73;;;15.47;;
15697;SDS011;7949;48.726;9.102;2023-02-10T06:26:55;38.80;;;17.00;;
15697;SDS011;7949;48.726;9.102;2023-02-10T06:29:23;37.67;;;16.27;;
15697;SDS011;7949;48.726;9.102;2023-02-10T06:31:51;42.43;;;16.97;;
15697;SDS011;7949;48.726;9.102;2023-02-10T06:34:18;45.20;;;18.40;;
15697;SDS011;7949;48.726;9.102;2023-02-10T06:36:44;37.43;;;16.73;;
15697;SDS011;7949;48.726;9.102;2023-02-10T06:39:11;39.93;;;17.00;;
15697;SDS011;7949;48.726;9.102;2023-02-10T06:41:38;39.63;;;16.37;;
15697;SDS011;7949;48.726;9.102;2023-02-10T06:44:06;34.37;;;16.50;;
15697;SDS011;7949;48.726;9.102;2023-02-10T06:46:34;34.67;;;16.77;;
15697;SDS011;7949;48.726;9.102;2023-02-10T06:49:01;37.03;;;17.43;;
15697;SDS011;7949;48.726;9.102;2023-02-10T06:51:28;39.43;;;17.77;;
15697;SDS011;7949;48.726;9.102;2023-02-10T06:53:55;40.43;;;17.07;;
15697;SDS011;7949;48.726;9.102;2023-02-10T06:56:22;40.83;;;18.83;;
15697;SDS011;7949;48.726;9.102;2023-02-10T06:58:49;36.30;;;17.10;;
15697;SDS011;7949;48.726;9.102;2023-02-10T07:01:16;38.20;;;16.77;;
15697;SDS011;7949;48.726;9.102;2023-02-10T07:03:45;39.73;;;17.10;;
15697;SDS011;7949;48.726;9.102;2023-02-10T07:06:12;38.90;;;17.47;;
15697;SDS011;7949;48.726;9.102;2023-02-10T07:08:39;35.00;;;16.57;;
15697;SDS011;7949;48.726;9.102;2023-02-10T07:11:06;41.33;;;17.93;;
15697;SDS011;7949;48.726;9.102;2023-02-10T07:13:32;42.23;;;18.90;;
15697;SDS011;7949;48.726;9.102;2023-02-10T07:15:59;39.20;;;18.00;;
15697;SDS011;7949;48.726;9.102;2023-02-10T07:18:26;41.63;;;18.97;;
15697;SDS011;7949;48.726;9.102;2023-02-10T07:20:56;42.10;;;19.00;;
15697;SDS011;7949;48.726;9.102;2023-02-10T07:23:23;48.27;;;20.27;;
15697;SDS011;7949;48.726;9.102;2023-02-10T07:25:50;46.73;;;20.60;;
15697;SDS011;7949;48.726;9.102;2023-02-10T07:28:17;53.13;;;21.77;;
15697;SDS011;7949;48.726;9.102;2023-02-10T07:30:44;52.90;;;21.00;;
15697;SDS011;7949;48.726;9.102;2023-02-10T07:33:11;41.97;;;19.87;;
15697;SDS011;7949;48.726;9.102;2023-02-10T07:35:38;49.50;;;20.77;;
15697;SDS011;7949;48.726;9.102;2023-02-10T07:38:06;45.03;;;20.77;;
15697;SDS011;7949;48.726;9.102;2023-02-10T07:40:33;39.67;;;17.80;;
15697;SDS011;7949;48.726;9.102;2023-02-10T07:43:00;48.53;;;21.00;;
15697;SDS011;7949;48.726;9.102;2023-02-10T07:45:27;40.03;;;19.70;;
15697;SDS011;7949;48.726;9.102;2023-02-10T07:47:56;56.90;;;23.13;;
15697;SDS011;7949;48.726;9.102;2023-02-10T07:50:23;43.90;;;21.30;;
15697;SDS011;7949;48.726;9.102;2023-02-10T07:52:50;46.67;;;21.23;;
15697;SDS011;7949;48.726;9.102;2023-02-10T07:55:19;46.10;;;21.53;;
15697;SDS011;7949;48.726;9.102;2023-02-10T07:57:46;54.63;;;21.90;;
15697;SDS011;7949;48.726;9.102;2023-02-10T08:00:13;50.20;;;20.60;;
15697;SDS011;7949;48.726;9.102;2023-02-10T08:02:40;54.73;;;22.23;;
15697;SDS011;7949;48.726;9.102;2023-02-10T08:05:07;53.87;;;21.90;;
15697;SDS011;7949;48.726;9.102;2023-02-10T08:07:35;60.20;;;23.93;;
15697;SDS011;7949;48.726;9.102;2023-02-10T08:10:02;78.53;;;28.30;;
15697;SDS011;7949;48.726;9.102;2023-02-10T08:12:30;79.17;;;30.07;;
15697;SDS011;7949;48.726;9.102;2023-02-10T08:14:58;74.50;;;29.20;;
15697;SDS011;7949;48.726;9.102;2023-02-10T08:17:25;60.03;;;24.43;;
15697;SDS011;7949;48.726;9.102;2023-02-10T08:19:53;53.97;;;24.83;;
15697;SDS011;7949;48.726;9.102;2023-02-10T08:22:19;72.57;;;27.03;;
15697;SDS011;7949;48.726;9.102;2023-02-10T08:24:46;65.03;;;26.77;;
15697;SDS011;7949;48.726;9.102;2023-02-10T08:27:13;50.83;;;23.43;;
15697;SDS011;7949;48.726;9.102;2023-02-10T08:29:42;55.70;;;26.07;;
15697;SDS011;7949;48.726;9.102;2023-02-10T08:32:09;55.57;;;23.67;;
15697;SDS011;7949;48.726;9.102;2023-02-10T08:34:37;43.30;;;20.97;;
15697;SDS011;7949;48.726;9.102;2023-02-10T08:37:05;45.50;;;20.13;;
15697;SDS011;7949;48.726;9.102;2023-02-10T08:39:32;43.77;;;19.73;;
15697;SDS011;7949;48.726;9.102;2023-02-10T08:41:58;46.00;;;20.90;;
15697;SDS011;7949;48.726;9.102;2023-02-10T08:44:25;52.20;;;20.97;;
15697;SDS011;7949;48.726;9.102;2023-02-10T08:46:54;45.40;;;19.00;;
15697;SDS011;7949;48.726;9.102;2023-02-10T08:49:21;40.40;;;19.50;;
15697;SDS011;7949;48.726;9.102;2023-02-10T08:51:49;40.70;;;18.87;;
15697;SDS011;7949;48.726;9.102;2023-02-10T08:54:16;45.67;;;19.93;;
15697;SDS011;7949;48.726;9.102;2023-02-10T08:56:43;45.70;;;20.00;;
15697;SDS011;7949;48.726;9.102;2023-02-10T08:59:11;45.53;;;21.70;;
15697;SDS011;7949;48.726;9.102;2023-02-10T09:01:38;41.53;;;20.70;;
15697;SDS011;7949;48.726;9.102;2023-02-10T09:04:06;41.00;;;20.47;;
15697;SDS011;7949;48.726;9.102;2023-02-10T09:06:35;38.97;;;19.13;;
15697;SDS011;7949;48.726;9.102;2023-02-10T09:09:04;36.13;;;18.87;;
15697;SDS011;7949;48.726;9.102;2023-02-10T09:11:31;38.70;;;18.27;;
15697;SDS011;7949;48.726;9.102;2023-02-10T09:13:58;46.43;;;20.00;;
15697;SDS011;7949;48.726;9.102;2023-02-10T09:16:25;40.90;;;19.27;;
15697;SDS011;7949;48.726;9.102;2023-02-10T09:18:53;37.33;;;18.70;;
15697;SDS011;7949;48.726;9.102;2023-02-10T09:21:21;37.50;;;18.27;;
15697;SDS011;7949;48.726;9.102;2023-02-10T09:23:49;40.93;;;18.03;;
15697;SDS011;7949;48.726;9.102;2023-02-10T09:26:16;36.87;;;18.33;;
15697;SDS011;7949;48.726;9.102;2023-02-10T09:28:43;34.60;;;17.33;;
15697;SDS011;7949;48.726;9.102;2023-02-10T09:31:13;41.40;;;19.10;;
15697;SDS011;7949;48.726;9.102;2023-02-10T09:33:41;36.03;;;16.93;;
15697;SDS011;7949;48.726;9.102;2023-02-10T09:36:10;36.70;;;17.10;;
15697;SDS011;7949;48.726;9.102;2023-02-10T09:38:41;34.03;;;17.07;;
15697;SDS011;7949;48.726;9.102;2023-02-10T09:41:19;35.93;;;16.40;;
15697;SDS011;7949;48.726;9.102;2023-02-10T09:44:04;35.70;;;17.43;;
15697;SDS011;7949;48.726;9.102;2023-02-10T09:46:42;29.80;;;15.93;;
15697;SDS011;7949;48.726;9.102;2023-02-10T09:52:07;40.50;;;16.80;;
15697;SDS011;7949;48.726;9.102;2023-02-10T09:54:42;30.27;;;15.33;;
15697;SDS011;7949;48.726;9.102;2023-02-10T09:57:11;34.97;;;16.80;;
15697;SDS011;7949;48.726;9.102;2023-02-10T09:59:39;27.27;;;14.90;;
15697;SDS011;7949;48.726;9.102;2023-02-10T10:02:11;25.90;;;13.70;;
15697;SDS011;7949;48.726;9.102;2023-02-10T10:04:42;23.03;;;12.43;;
15697;SDS011;7949;48.726;9.102;2023-02-10T10:07:13;33.53;;;14.03;;
15697;SDS011;7949;48.726;9.102;2023-02-10T10:09:50;28.73;;;13.53;;
15697;SDS011;7949;48.726;9.102;2023-02-10T10:12:24;26.47;;;14.03;;
15697;SDS011;7949;48.726;9.102;2023-02-10T10:14:52;25.83;;;13.40;;
15697;SDS011;7949;48.726;9.102;2023-02-10T10:17:27;28.93;;;15.23;;
15697;SDS011;7949;48.726;9.102;2023-02-10T10:20:14;29.23;;;13.93;;
15697;SDS011;7949;48.726;9.102;2023-02-10T10:22:56;27.70;;;13.63;;
15697;SDS011;7949;48.726;9.102;2023-02-10T10:25:46;26.07;;;13.57;;
15697;SDS011;7949;48.726;9.102;2023-02-10T10:28:23;28.77;;;13.87;;
15697;SDS011;7949;48.726;9.102;2023-02-10T10:30:58;29.30;;;14.03;;
15697;SDS011;7949;48.726;9.102;2023-02-10T10:33:30;27.73;;;14.50;;
15697;SDS011;7949;48.726;9.102;2023-02-10T10:36:01;27.13;;;15.07;;
15697;SDS011;7949;48.726;9.102;2023-02-10T10:38:29;34.77;;;14.37;;
15697;SDS011;7949;48.726;9.102;2023-02-10T10:41:01;30.27;;;14.97;;
15697;SDS011;7949;48.726;9.102;2023-02-10T10:43:31;31.63;;;14.70;;
15697;SDS011;7949;48.726;9.102;2023-02-10T10:46:11;24.43;;;12.60;;
15697;SDS011;7949;48.726;9.102;2023-02-10T10:48:41;28.23;;;12.80;;
15697;SDS011;7949;48.726;9.102;2023-02-10T10:51:09;27.90;;;12.97;;
15697;SDS011;7949;48.726;9.102;2023-02-10T10:53:39;29.43;;;12.70;;
15697;SDS011;7949;48.726;9.102;2023-02-10T10:56:11;25.63;;;11.73;;
15697;SDS011;7949;48.726;9.102;2023-02-10T10:58:44;24.53;;;11.87;;
15697;SDS011;7949;48.726;9.102;2023-02-10T11:01:13;21.23;;;9.27;;
15697;SDS011;7949;48.726;9.102;2023-02-10T11:03:42;23.57;;;12.27;;
15697;SDS011;7949;48.726;9.102;2023-02-10T11:06:09;26.67;;;12.80;;
15697;SDS011;7949;48.726;9.102;2023-02-10T11:08:38;26.30;;;12.47;;
15697;SDS011;7949;48.726;9.102;2023-02-10T11:11:09;23.90;;;12.80;;
15697;SDS011;7949;48.726;9.102;2023-02-10T11:13:47;23.17;;;12.43;;
15697;SDS011;7949;48.726;9.102;2023-02-10T11:16:18;26.77;;;12.80;;
15697;SDS011;7949;48.726;9.102;2023-02-10T11:18:50;27.40;;;12.57;;
15697;SDS011;7949;48.726;9.102;2023-02-10T11:21:19;22.83;;;12.10;;
15697;SDS011;7949;48.726;9.102;2023-02-10T11:23:47;23.53;;;11.50;;
15697;SDS011;7949;48.726;9.102;2023-02-10T11:26:18;23.03;;;10.27;;
15697;SDS011;7949;48.726;9.102;2023-02-10T11:28:46;23.73;;;11.13;;
15697;SDS011;7949;48.726;9.102;2023-02-10T11:31:19;23.37;;;11.87;;
15697;SDS011;7949;48.726;9.102;2023-02-10T11:33:54;21.10;;;11.27;;
15697;SDS011;7949;48.726;9.102;2023-02-10T11:36:28;28.70;;;12.70;;
15697;SDS011;7949;48.726;9.102;2023-02-10T11:39:00;33.10;;;11.70;;
15697;SDS011;7949;48.726;9.102;2023-02-10T11:41:33;28.93;;;12.07;;
15697;SDS011;7949;48.726;9.102;2023-02-10T11:44:00;29.53;;;13.23;;
15697;SDS011;7949;48.726;9.102;2023-02-10T11:46:30;22.63;;;12.00;;
15697;SDS011;7949;48.726;9.102;2023-02-10T11:48:58;24.20;;;12.30;;
15697;SDS011;7949;48.726;9.102;2023-02-10T11:51:26;31.30;;;13.50;;
15697;SDS011;7949;48.726;9.102;2023-02-10T11:53:53;25.23;;;12.63;;
15697;SDS011;7949;48.726;9.102;2023-02-10T11:56:23;28.33;;;12.60;;
15697;SDS011;7949;48.726;9.102;2023-02-10T11:59:08;23.17;;;12.13;;
15697;SDS011;7949;48.726;9.102;2023-02-10T12:01:48;26.33;;;11.70;;
15697;SDS011;7949;48.726;9.102;2023-02-10T12:04:39;30.77;;;13.13;;
15697;SDS011;7949;48.726;9.102;2023-02-10T12:07:20;25.77;;;12.50;;
15697;SDS011;7949;48.726;9.102;2023-02-10T12:09:55;25.17;;;12.40;;
15697;SDS011;7949;48.726;9.102;2023-02-10T12:12:30;26.53;;;12.63;;
15697;SDS011;7949;48.726;9.102;2023-02-10T12:15:05;25.60;;;13.30;;
15697;SDS011;7949;48.726;9.102;2023-02-10T12:17:42;23.40;;;12.77;;
15697;SDS011;7949;48.726;9.102;2023-02-10T12:20:24;33.73;;;14.63;;
15697;SDS011;7949;48.726;9.102;2023-02-10T12:23:08;25.33;;;12.77;;
15697;SDS011;7949;48.726;9.102;2023-02-10T12:25:46;28.93;;;13.70;;
15697;SDS011;7949;48.726;9.102;2023-02-10T12:28:25;35.63;;;18.97;;
15697;SDS011;7949;48.726;9.102;2023-02-10T12:31:14;35.30;;;17.60;;
15697;SDS011;7949;48.726;9.102;2023-02-10T12:34:00;32.50;;;17.33;;
15697;SDS011;7949;48.726;9.102;2023-02-10T12:36:38;32.67;;;18.00;;
15697;SDS011;7949;48.726;9.102;2023-02-10T12:39:17;35.83;;;18.70;;
15697;SDS011;7949;48.726;9.102;2023-02-10T12:41:52;42.70;;;17.97;;
15697;SDS011;7949;48.726;9.102;2023-02-10T12:44:30;34.90;;;17.33;;
15697;SDS011;7949;48.726;9.102;2023-02-10T12:47:11;27.93;;;16.10;;
15697;SDS011;7949;48.726;9.102;2023-02-10T12:49:50;30.77;;;16.33;;
15697;SDS011;7949;48.726;9.102;2023-02-10T12:52:28;37.67;;;16.77;;
15697;SDS011;7949;48.726;9.102;2023-02-10T12:55:00;33.43;;;17.57;;
15697;SDS011;7949;48.726;9.102;2023-02-10T12:57:33;28.70;;;16.37;;
15697;SDS011;7949;48.726;9.102;2023-02-10T13:00:09;34.13;;;18.23;;
15697;SDS011;7949;48.726;9.102;2023-02-10T13:02:44;30.63;;;17.10;;
15697;SDS011;7949;48.726;9.102;2023-02-10T13:05:16;31.90;;;16.60;;
15697;SDS011;7949;48.726;9.102;2023-02-10T13:07:47;31.97;;;16.43;;
15697;SDS011;7949;48.726;9.102;2023-02-10T13:10:22;29.90;;;17.40;;
15697;SDS011;7949;48.726;9.102;2023-02-10T13:12:56;35.87;;;17.57;;
15697;SDS011;7949;48.726;9.102;2023-02-10T13:15:28;31.70;;;18.33;;
15697;SDS011;7949;48.726;9.102;2023-02-10T13:18:01;32.50;;;18.13;;
15697;SDS011;7949;48.726;9.102;2023-02-10T13:20:30;38.23;;;18.20;;
15697;SDS011;7949;48.726;9.102;2023-02-10T13:23:10;34.03;;;17.73;;
15697;SDS011;7949;48.726;9.102;2023-02-10T13:25:47;33.87;;;18.53;;
15697;SDS011;7949;48.726;9.102;2023-02-10T13:28:34;31.13;;;17.07;;
15697;SDS011;7949;48.726;9.102;2023-02-10T13:31:15;30.73;;;16.70;;
15697;SDS011;7949;48.726;9.102;2023-02-10T13:33:56;28.97;;;15.67;;
15697;SDS011;7949;48.726;9.102;2023-02-10T13:36:28;33.20;;;18.33;;
15697;SDS011;7949;48.726;9.102;2023-02-10T13:38:59;32.60;;;18.80;;
15697;SDS011;7949;48.726;9.102;2023-02-10T13:41:30;37.17;;;18.23;;
15697;SDS011;7949;48.726;9.102;2023-02-10T13:44:14;30.17;;;17.03;;
15697;SDS011;7949;48.726;9.102;2023-02-10T13:46:50;30.67;;;17.27;;
15697;SDS011;7949;48.726;9.102;2023-02-10T13:49:23;34.73;;;17.43;;
15697;SDS011;7949;48.726;9.102;2023-02-10T13:51:58;32.47;;;17.13;;
15697;SDS011;7949;48.726;9.102;2023-02-10T13:54:29;30.60;;;17.30;;
15697;SDS011;7949;48.726;9.102;2023-02-10T13:57:00;34.07;;;17.57;;
15697;SDS011;7949;48.726;9.102;2023-02-10T13:59:35;28.87;;;17.37;;
15697;SDS011;7949;48.726;9.102;2023-02-10T14:02:15;29.53;;;15.33;;
15697;SDS011;7949;48.726;9.102;2023-02-10T14:04:48;32.77;;;15.87;;
15697;SDS011;7949;48.726;9.102;2023-02-10T14:07:30;29.60;;;14.97;;
15697;SDS011;7949;48.726;9.102;2023-02-10T14:10:05;26.77;;;15.47;;
15697;SDS011;7949;48.726;9.102;2023-02-10T14:12:53;24.83;;;14.83;;
15697;SDS011;7949;48.726;9.102;2023-02-10T14:15:23;26.87;;;15.43;;
15697;SDS011;7949;48.726;9.102;2023-02-10T14:17:53;28.70;;;15.93;;
15697;SDS011;7949;48.726;9.102;2023-02-10T14:20:29;26.97;;;15.93;;
15697;SDS011;7949;48.726;9.102;2023-02-10T14:22:59;29.50;;;16.50;;
15697;SDS011;7949;48.726;9.102;2023-02-10T14:25:32;34.83;;;15.00;;
15697;SDS011;7949;48.726;9.102;2023-02-10T14:28:02;26.90;;;15.07;;
15697;SDS011;7949;48.726;9.102;2023-02-10T14:30:36;27.90;;;14.80;;
15697;SDS011;7949;48.726;9.102;2023-02-10T14:33:13;26.67;;;13.93;;
15697;SDS011;7949;48.726;9.102;2023-02-10T14:35:51;30.37;;;14.70;;
15697;SDS011;7949;48.726;9.102;2023-02-10T14:38:20;33.97;;;15.33;;
15697;SDS011;7949;48.726;9.102;2023-02-10T14:40:49;32.53;;;14.33;;
15697;SDS011;7949;48.726;9.102;2023-02-10T14:43:19;29.40;;;15.10;;
15697;SDS011;7949;48.726;9.102;2023-02-10T14:45:49;30.60;;;15.07;;
15697;SDS011;7949;48.726;9.102;2023-02-10T14:48:16;31.77;;;15.60;;
15697;SDS011;7949;48.726;9.102;2023-02-10T14:50:56;28.80;;;14.63;;
15697;SDS011;7949;48.726;9.102;2023-02-10T14:53:29;30.87;;;12.80;;
15697;SDS011;7949;48.726;9.102;2023-02-10T14:55:57;31.50;;;15.23;;
15697;SDS011;7949;48.726;9.102;2023-02-10T14:58:25;30.30;;;15.50;;
15697;SDS011;7949;48.726;9.102;2023-02-10T15:00:54;28.23;;;15.90;;
15697;SDS011;7949;48.726;9.102;2023-02-10T15:03:25;29.60;;;15.70;;
15697;SDS011;7949;48.726;9.102;2023-02-10T15:05:53;28.33;;;15.43;;
15697;SDS011;7949;48.726;9.102;2023-02-10T15:08:28;33.17;;;15.57;;
15697;SDS011;7949;48.726;9.102;2023-02-10T15:11:00;29.50;;;16.53;;